Time;durP1;ratioP1;P1;durP2;ratioP2;P2;SDS_P1;SDS_P2;PMS_P1;PMS_P2;Temp;Humidity;BMP_temperature;BMP_pressure;BME280_temperature;BME280_humidity;BME280_pressure;Samples;Min_cycle;Max_cycle;Signal;HPM_P1;HPM_P2
2021/09/11 00:03:01;;;;;;;16.63;9.60;;;;;16.00;101115.00;;;;12890396;22;20177;-79
2021/09/11 00:08:03;;;;;;;13.40;9.47;;;;;16.00;101114.00;;;;12865894;22;20177;-80
2021/09/11 00:13:05;;;;;;;17.00;8.87;;;;;16.00;101112.00;;;;12935924;22;20679;-79
2021/09/11 00:18:06;;;;;;;11.73;9.47;;;;;15.90;101105.00;;;;12890825;22;20177;-79
2021/09/11 00:23:10;;;;;;;18.23;9.53;;;;;15.90;101108.00;;;;12890902;22;20197;-79
2021/09/11 00:28:12;;;;;;;16.07;9.03;;;;;15.80;101095.00;;;;12865941;22;20609;-79
2021/09/11 00:33:13;;;;;;;17.43;9.93;;;;;15.70;101094.00;;;;12839433;22;20220;-80
2021/09/11 00:38:14;;;;;;;12.83;9.37;;;;;15.70;101084.00;;;;12891865;22;20260;-79
2021/09/11 00:43:22;;;;;;;14.73;10.40;;;;;15.60;101093.00;;;;12888814;22;20209;-80
2021/09/11 00:48:24;;;;;;;19.83;11.53;;;;;15.70;101092.00;;;;12890528;22;20180;-80
2021/09/11 00:53:25;;;;;;;19.20;11.23;;;;;15.70;101092.00;;;;12889979;22;20177;-79
2021/09/11 00:58:26;;;;;;;20.67;9.90;;;;;15.70;101095.00;;;;12864429;22;20595;-79
2021/09/11 01:03:27;;;;;;;18.60;9.97;;;;;15.60;101094.00;;;;12890285;22;20173;-79
2021/09/11 01:08:41;;;;;;;19.03;9.90;;;;;15.60;101089.00;;;;12866307;22;20173;-79
2021/09/11 01:13:42;;;;;;;18.50;9.87;;;;;15.50;101093.00;;;;12864419;22;20172;-79
2021/09/11 01:18:45;;;;;;;16.33;10.40;;;;;15.50;101091.00;;;;12865740;22;20177;-79
2021/09/11 01:23:46;;;;;;;18.57;10.27;;;;;15.40;101093.00;;;;12934629;22;20365;-80
2021/09/11 01:28:47;;;;;;;17.63;9.40;;;;;15.40;101091.00;;;;12886574;22;20202;-80
2021/09/11 01:33:48;;;;;;;15.40;9.83;;;;;15.30;101094.00;;;;12881808;22;20177;-79
2021/09/11 01:38:49;;;;;;;27.43;9.60;;;;;15.30;101091.00;;;;12853956;22;20181;-81
2021/09/11 01:43:50;;;;;;;15.40;9.63;;;;;15.30;101100.00;;;;12835536;22;20801;-80
2021/09/11 01:48:51;;;;;;;17.63;9.47;;;;;15.30;101093.00;;;;12838473;22;20193;-80
2021/09/11 01:53:52;;;;;;;16.73;9.50;;;;;15.40;101102.00;;;;12839594;22;20208;-80
2021/09/11 01:58:54;;;;;;;15.53;9.73;;;;;15.50;101103.00;;;;12863999;22;20679;-79
2021/09/11 02:03:55;;;;;;;19.77;9.33;;;;;15.60;101103.00;;;;12910385;22;20162;-79
2021/09/11 02:08:56;;;;;;;21.07;9.33;;;;;15.70;101089.00;;;;12868249;22;20220;-80
2021/09/11 02:13:57;;;;;;;19.73;9.43;;;;;15.80;101085.00;;;;12937176;22;20166;-80
2021/09/11 02:18:58;;;;;;;13.30;8.57;;;;;15.90;101087.00;;;;12842642;22;20620;-79
2021/09/11 02:24:00;;;;;;;16.17;9.00;;;;;16.00;101085.00;;;;12891903;22;20189;-80
2021/09/11 02:29:02;;;;;;;15.75;8.32;;;;;16.00;101087.00;;;;12937653;22;20205;-78
2021/09/11 02:34:04;;;;;;;15.93;8.00;;;;;16.00;101091.00;;;;12842721;22;20177;-79
2021/09/11 02:39:06;;;;;;;14.07;7.93;;;;;16.10;101090.00;;;;12867878;22;20173;-79
2021/09/11 02:44:08;;;;;;;19.80;6.73;;;;;16.10;101080.00;;;;12893272;22;20180;-78
2021/09/11 02:49:09;;;;;;;10.80;6.55;;;;;16.10;101087.00;;;;12866430;22;20190;-80
2021/09/11 02:54:10;;;;;;;9.10;6.00;;;;;16.20;101095.00;;;;12841556;22;20178;-79
2021/09/11 02:59:12;;;;;;;11.43;6.55;;;;;16.20;101088.00;;;;12916304;22;20478;-79
2021/09/11 03:04:13;;;;;;;10.82;6.38;;;;;16.20;101093.00;;;;12866730;22;20216;-79
2021/09/11 03:09:14;;;;;;;8.07;6.90;;;;;16.20;101095.00;;;;12868033;22;20197;-78
2021/09/11 03:14:15;;;;;;;13.77;6.13;;;;;16.20;101089.00;;;;12892339;22;20588;-79
2021/09/11 03:19:16;;;;;;;10.90;5.83;;;;;16.20;101091.00;;;;12893198;22;20183;-78
2021/09/11 03:24:17;;;;;;;15.23;5.83;;;;;16.20;101077.00;;;;12890804;22;20189;-78
2021/09/11 03:29:18;;;;;;;8.43;5.43;;;;;16.20;101080.00;;;;12867240;22;20255;-79
2021/09/11 03:34:20;;;;;;;10.02;4.75;;;;;16.20;101094.00;;;;12842369;22;20169;-80
2021/09/11 03:39:21;;;;;;;8.65;5.00;;;;;16.20;101082.00;;;;12891172;22;20177;-79
2021/09/11 03:44:22;;;;;;;11.68;5.25;;;;;16.30;101085.00;;;;12891211;22;20165;-79
2021/09/11 03:49:24;;;;;;;14.80;5.18;;;;;16.30;101089.00;;;;12866357;23;20259;-79
2021/09/11 03:54:25;;;;;;;14.57;5.00;;;;;16.30;101080.00;;;;12890252;22;20215;-79
2021/09/11 03:59:27;;;;;;;12.75;5.13;;;;;16.30;101084.00;;;;12865706;22;20185;-79
2021/09/11 04:04:28;;;;;;;11.10;4.60;;;;;16.30;101090.00;;;;12841465;22;20178;-79
2021/09/11 04:09:29;;;;;;;8.00;4.65;;;;;16.30;101088.00;;;;12866047;22;20221;-80
2021/09/11 04:14:30;;;;;;;14.27;4.65;;;;;16.30;101094.00;;;;12914949;22;20671;-79
2021/09/11 04:19:32;;;;;;;10.63;4.57;;;;;16.30;101096.00;;;;12866109;22;20177;-80
2021/09/11 04:24:33;;;;;;;9.50;4.80;;;;;16.30;101093.00;;;;12890495;22;20688;-79
2021/09/11 04:29:34;;;;;;;5.30;4.50;;;;;16.30;101095.00;;;;12865023;22;20197;-79
2021/09/11 04:34:36;;;;;;;12.05;4.53;;;;;16.30;101100.00;;;;12867698;22;20184;-78
2021/09/11 04:39:37;;;;;;;9.45;4.80;;;;;16.30;101090.00;;;;12890047;22;20308;-78
2021/09/11 04:44:38;;;;;;;11.20;4.82;;;;;16.40;101091.00;;;;12865862;22;20205;-78
2021/09/11 04:49:39;;;;;;;12.52;5.57;;;;;16.40;101099.00;;;;12914495;22;20233;-79
2021/09/11 04:54:40;;;;;;;9.88;4.93;;;;;16.40;101090.00;;;;12886221;22;20188;-79
2021/09/11 04:59:42;;;;;;;7.88;4.82;;;;;16.40;101092.00;;;;12865301;22;20212;-79
2021/09/11 05:04:43;;;;;;;10.82;5.25;;;;;16.40;101108.00;;;;12935653;22;20216;-79
2021/09/11 05:09:44;;;;;;;10.50;5.43;;;;;16.40;101104.00;;;;12890163;22;20185;-79
2021/09/11 05:14:45;;;;;;;12.35;5.93;;;;;16.40;101099.00;;;;12889789;22;20169;-80
2021/09/11 05:19:46;;;;;;;16.52;6.15;;;;;16.40;101096.00;;;;12936248;22;20592;-79
2021/09/11 05:24:47;;;;;;;14.82;6.53;;;;;16.50;101103.00;;;;12911535;22;20196;-79
2021/09/11 05:29:49;;;;;;;13.13;5.73;;;;;16.50;101109.00;;;;12866399;22;20225;-81
2021/09/11 05:34:50;;;;;;;11.18;5.70;;;;;16.60;101113.00;;;;12890957;22;20236;-80
2021/09/11 05:39:51;;;;;;;8.80;5.63;;;;;16.60;101122.00;;;;12866330;22;20170;-80
2021/09/11 05:44:52;;;;;;;10.82;5.72;;;;;16.70;101127.00;;;;12864683;22;20232;-81
2021/09/11 05:49:53;;;;;;;9.07;6.05;;;;;16.80;101130.00;;;;12866845;22;20203;-81
2021/09/11 05:54:54;;;;;;;10.50;5.50;;;;;16.80;101124.00;;;;12889817;22;20179;-80
2021/09/11 06:00:00;;;;;;;8.35;5.97;;;;;16.90;101134.00;;;;12865391;22;20493;-80
2021/09/11 06:05:14;;;;;;;11.35;6.85;;;;;16.90;101139.00;;;;12892941;22;20180;-80
2021/09/11 06:10:15;;;;;;;12.93;6.05;;;;;17.00;101152.00;;;;12937724;22;20193;-80
2021/09/11 06:15:16;;;;;;;11.23;6.43;;;;;17.00;101151.00;;;;12839843;22;20193;-80
2021/09/11 06:20:18;;;;;;;11.93;6.60;;;;;17.00;101161.00;;;;12891384;22;20680;-80
2021/09/11 06:25:19;;;;;;;11.20;6.72;;;;;17.10;101165.00;;;;12867030;22;20220;-79
2021/09/11 06:30:22;;;;;;;13.10;6.93;;;;;17.10;101167.00;;;;12890414;22;20514;-81
2021/09/11 06:35:24;;;;;;;10.02;6.57;;;;;17.30;101171.00;;;;12864406;22;20712;-80
2021/09/11 06:40:25;;;;;;;14.02;7.72;;;;;17.40;101176.00;;;;12890998;22;20173;-80
2021/09/11 06:45:26;;;;;;;12.27;6.43;;;;;17.60;101176.00;;;;12863691;22;20184;-80
2021/09/11 06:50:27;;;;;;;10.68;6.90;;;;;17.80;101175.00;;;;12888490;22;20202;-80
2021/09/11 06:55:28;;;;;;;12.55;7.68;;;;;17.90;101182.00;;;;12893135;22;20170;-80
2021/09/11 07:00:30;;;;;;;11.15;6.85;;;;;18.10;101186.00;;;;12867841;22;20229;-80
2021/09/11 07:05:31;;;;;;;12.70;7.68;;;;;18.30;101198.00;;;;12894110;22;20204;-80
2021/09/11 07:10:32;;;;;;;10.18;7.22;;;;;18.90;101208.00;;;;12915685;22;20533;-81
2021/09/11 07:15:33;;;;;;;11.15;6.88;;;;;19.20;101216.00;;;;12867613;22;20177;-80
2021/09/11 07:20:34;;;;;;;9.65;6.60;;;;;19.30;101226.00;;;;12865144;22;20193;-79
2021/09/11 07:25:35;;;;;;;9.38;6.13;;;;;19.10;101222.00;;;;12891012;22;20260;-79
2021/09/11 07:30:37;;;;;;;8.98;7.03;;;;;18.80;101213.00;;;;12866474;22;20196;-80
2021/09/11 07:35:38;;;;;;;10.93;5.93;;;;;18.70;101216.00;;;;12869038;22;20173;-81
2021/09/11 07:40:39;;;;;;;12.63;6.55;;;;;18.80;101215.00;;;;12833960;22;20189;-81
2021/09/11 07:45:40;;;;;;;8.27;6.38;;;;;19.00;101209.00;;;;12863519;22;20177;-80
2021/09/11 07:50:42;;;;;;;10.02;6.50;;;;;19.30;101211.00;;;;12864804;22;20197;-81
2021/09/11 07:55:43;;;;;;;7.43;6.53;;;;;20.00;101213.00;;;;12891928;22;20176;-80
2021/09/11 08:00:45;;;;;;;7.40;6.65;;;;;20.30;101219.00;;;;12869569;22;20173;-80
2021/09/11 08:05:46;;;;;;;8.70;5.75;;;;;20.40;101214.00;;;;12867601;22;20643;-81
2021/09/11 08:10:47;;;;;;;6.57;5.25;;;;;20.70;101223.00;;;;12869705;22;20276;-82
2021/09/11 08:15:48;;;;;;;6.63;5.45;;;;;20.90;101221.00;;;;12893245;22;20471;-82
2021/09/11 08:20:52;;;;;;;5.75;5.18;;;;;21.20;101215.00;;;;12868089;22;20244;-81
2021/09/11 08:25:54;;;;;;;9.25;5.68;;;;;21.50;101221.00;;;;12866081;22;20288;-80
2021/09/11 08:30:55;;;;;;;7.30;4.55;;;;;21.60;101235.00;;;;12866204;22;20216;-81
2021/09/11 08:35:56;;;;;;;7.43;4.75;;;;;21.60;101234.00;;;;12891983;22;20177;-80
2021/09/11 08:40:59;;;;;;;7.60;4.80;;;;;21.70;101236.00;;;;12868261;22;20173;-81
2021/09/11 08:46:01;;;;;;;7.30;4.82;;;;;21.50;101252.00;;;;12889510;22;20238;-81
2021/09/11 08:51:03;;;;;;;7.82;4.95;;;;;21.00;101252.00;;;;12885875;22;20203;-81
2021/09/11 08:56:05;;;;;;;7.63;4.38;;;;;20.80;101251.00;;;;12867535;22;20170;-80
2021/09/11 09:01:07;;;;;;;7.85;5.20;;;;;21.30;101262.00;;;;12892532;22;20177;-81
2021/09/11 09:06:22;;;;;;;7.32;4.30;;;;;21.50;101258.00;;;;12891750;22;20229;-81
2021/09/11 09:11:29;;;;;;;5.47;4.03;;;;;21.50;101262.00;;;;12913466;22;20185;-80
2021/09/11 09:16:34;;;;;;;7.30;4.45;;;;;21.30;101251.00;;;;12868037;22;20169;-80
2021/09/11 09:21:35;;;;;;;6.80;4.10;;;;;21.70;101248.00;;;;12866997;22;20185;-79
2021/09/11 09:26:57;;;;;;;7.07;4.13;;;;;22.40;101251.00;;;;12864868;22;20169;-79
2021/09/11 09:32:02;;;;;;;4.60;3.25;;;;;22.50;101256.00;;;;12889350;22;20272;-81
2021/09/11 09:37:14;;;;;;;6.72;3.70;;;;;22.60;101257.00;;;;12864385;22;20513;-80
2021/09/11 09:42:18;;;;;;;5.90;3.97;;;;;22.80;101259.00;;;;12865616;22;20176;-80
2021/09/11 09:47:23;;;;;;;6.03;3.55;;;;;23.10;101243.00;;;;12865316;23;20170;-80
2021/09/11 09:52:24;;;;;;;6.20;3.88;;;;;23.20;101249.00;;;;12865945;22;20347;-80
2021/09/11 09:57:27;;;;;;;5.10;4.03;;;;;23.50;101241.00;;;;12865418;22;20169;-79
2021/09/11 10:02:29;;;;;;;7.68;3.95;;;;;23.90;101245.00;;;;12890046;22;20169;-81
2021/09/11 10:07:30;;;;;;;7.65;4.28;;;;;23.80;101247.00;;;;12890333;22;20486;-80
2021/09/11 10:12:41;;;;;;;4.63;4.22;;;;;23.30;101254.00;;;;12864946;22;20193;-80
2021/09/11 10:17:42;;;;;;;6.20;4.35;;;;;22.90;101246.00;;;;12865714;22;20174;-80
2021/09/11 10:23:16;;;;;;;7.10;5.15;;;;;22.10;101257.00;;;;12864276;22;20185;-80
2021/09/11 10:28:22;;;;;;;6.88;4.70;;;;;22.10;101263.00;;;;12935367;22;20639;-79
2021/09/11 10:33:48;;;;;;;10.50;5.13;;;;;22.10;101257.00;;;;12867775;22;20955;-79
2021/09/11 10:38:53;;;;;;;6.40;5.18;;;;;22.80;101260.00;;;;12867593;22;20181;-80
2021/09/11 10:44:05;;;;;;;5.32;4.82;;;;;23.10;101263.00;;;;12867573;22;20166;-79
2021/09/11 10:49:27;;;;;;;5.45;4.93;;;;;23.30;101254.00;;;;12893557;22;20609;-80
2021/09/11 10:54:37;;;;;;;6.50;5.60;;;;;23.70;101239.00;;;;12938458;22;20172;-80
2021/09/11 10:59:48;;;;;;;5.88;4.32;;;;;24.10;101255.00;;;;12868153;22;20177;-81
2021/09/11 11:04:49;;;;;;;7.13;5.05;;;;;23.40;101250.00;;;;12915352;22;20169;-79
2021/09/11 11:09:54;;;;;;;5.97;4.72;;;;;22.60;101249.00;;;;12939542;22;20189;-80
2021/09/11 11:15:03;;;;;;;5.22;4.72;;;;;21.90;101243.00;;;;12869639;22;20545;-80
2021/09/11 11:20:06;;;;;;;6.43;5.47;;;;;21.70;101240.00;;;;12869887;22;20173;-80
2021/09/11 11:25:10;;;;;;;7.03;5.88;;;;;22.20;101248.00;;;;12894425;22;20204;-80
2021/09/11 11:30:11;;;;;;;7.00;6.25;;;;;22.10;101249.00;;;;12890805;22;20192;-79
2021/09/11 11:35:14;;;;;;;8.45;6.05;;;;;22.00;101254.00;;;;12907004;22;20177;-80
2021/09/11 11:40:16;;;;;;;5.95;5.35;;;;;22.50;101252.00;;;;12868275;23;20204;-80
2021/09/11 11:45:17;;;;;;;8.55;6.57;;;;;22.80;101251.00;;;;12890052;22;20331;-80
2021/09/11 11:50:29;;;;;;;9.75;6.57;;;;;23.50;101239.00;;;;12913839;22;20181;-80
2021/09/11 11:55:33;;;;;;;5.47;4.97;;;;;23.70;101239.00;;;;12935670;22;20604;-80
2021/09/11 12:00:40;;;;;;;6.72;5.60;;;;;23.40;101232.00;;;;12891925;22;20176;-80
2021/09/11 12:05:43;;;;;;;6.93;4.72;;;;;22.80;101235.00;;;;12891073;22;20181;-80
2021/09/11 12:10:52;;;;;;;7.45;5.20;;;;;23.00;101233.00;;;;12891989;22;20204;-79
2021/09/11 12:15:53;;;;;;;9.65;5.82;;;;;24.00;101213.00;;;;12890915;22;20602;-80
2021/09/11 12:20:54;;;;;;;5.95;5.28;;;;;23.90;101227.00;;;;12936676;22;20185;-80
2021/09/11 12:26:01;;;;;;;14.68;7.38;;;;;22.10;101252.00;;;;12868419;22;20173;-80
2021/09/11 12:31:07;;;;;;;7.38;4.15;;;;;20.90;101244.00;;;;12860578;22;20626;-81
2021/09/11 12:36:21;;;;;;;6.93;4.97;;;;;20.80;101231.00;;;;12865415;22;20201;-80
2021/09/11 12:41:22;;;;;;;10.98;5.53;;;;;21.10;101238.00;;;;12860040;22;20181;-79
2021/09/11 12:46:33;;;;;;;7.88;4.78;;;;;21.10;101234.00;;;;12888557;22;20180;-79
2021/09/11 12:51:36;;;;;;;9.90;5.30;;;;;21.00;101235.00;;;;12890684;22;20300;-78
2021/09/11 12:56:37;;;;;;;5.75;5.25;;;;;20.80;101220.00;;;;12890084;22;20556;-79
2021/09/11 13:01:41;;;;;;;7.78;5.70;;;;;20.80;101225.00;;;;12862952;22;20709;-78
2021/09/11 13:06:43;;;;;;;10.07;6.15;;;;;21.20;101221.00;;;;12931695;22;20172;-78
2021/09/11 13:11:45;;;;;;;11.07;7.32;;;;;21.50;101224.00;;;;12836947;22;20190;-79
2021/09/11 13:16:47;;;;;;;7.78;5.65;;;;;21.70;101234.00;;;;12863631;22;20170;-80
2021/09/11 13:21:49;;;;;;;6.82;5.88;;;;;21.80;101239.00;;;;12865193;22;20267;-80
2021/09/11 13:26:50;;;;;;;7.10;5.40;;;;;22.10;101239.00;;;;12936688;22;20166;-79
2021/09/11 13:31:54;;;;;;;6.75;4.72;;;;;22.10;101246.00;;;;12863040;22;20208;-79
2021/09/11 13:36:56;;;;;;;7.40;4.95;;;;;21.90;101247.00;;;;12865177;22;20170;-78
2021/09/11 13:41:57;;;;;;;9.82;5.05;;;;;21.70;101242.00;;;;12891593;22;20232;-78
2021/09/11 13:46:59;;;;;;;7.53;5.32;;;;;21.80;101239.00;;;;12888411;22;20185;-80
2021/09/11 13:52:01;;;;;;;10.68;4.97;;;;;22.30;101241.00;;;;12919161;22;20197;-82
2021/09/11 13:57:02;;;;;;;5.43;4.32;;;;;22.80;101254.00;;;;12844049;22;20177;-81
2021/09/11 14:02:04;;;;;;;5.68;4.45;;;;;22.80;101257.00;;;;12838909;22;20169;-81
2021/09/11 14:07:05;;;;;;;11.45;4.07;;;;;22.40;101256.00;;;;12869644;23;20178;-82
2021/09/11 14:12:06;;;;;;;6.28;4.28;;;;;21.70;101244.00;;;;12867764;22;20193;-81
2021/09/11 14:17:08;;;;;;;8.25;5.05;;;;;21.10;101255.00;;;;12893538;22;20170;-80
2021/09/11 14:22:09;;;;;;;5.15;4.30;;;;;20.70;101254.00;;;;12867459;22;20197;-81
2021/09/11 14:27:10;;;;;;;9.07;4.30;;;;;20.60;101242.00;;;;12912035;22;20169;-81
2021/09/11 14:32:11;;;;;;;6.40;4.22;;;;;20.80;101243.00;;;;12889719;22;20193;-81
2021/09/11 14:37:13;;;;;;;5.82;5.22;;;;;21.10;101248.00;;;;12911664;22;20166;-81
2021/09/11 14:42:14;;;;;;;6.03;4.75;;;;;21.20;101257.00;;;;12867790;22;20179;-80
2021/09/11 14:47:15;;;;;;;5.50;4.25;;;;;21.40;101251.00;;;;12891489;22;20216;-81
2021/09/11 14:52:16;;;;;;;4.30;3.17;;;;;21.50;101257.00;;;;12894586;23;20193;-80
2021/09/11 14:57:18;;;;;;;4.35;3.15;;;;;21.50;101257.00;;;;12867383;22;20805;-80
2021/09/11 15:02:20;;;;;;;8.98;3.60;;;;;21.50;101255.00;;;;12867333;22;20174;-80
2021/09/11 15:07:27;;;;;;;7.18;3.60;;;;;21.00;101251.00;;;;12871185;22;20204;-82
2021/09/11 15:12:29;;;;;;;8.23;3.13;;;;;20.50;101246.00;;;;12841880;22;20688;-81
2021/09/11 15:17:33;;;;;;;5.35;2.58;;;;;20.20;101259.00;;;;12890942;22;20228;-80
2021/09/11 15:22:38;;;;;;;3.40;2.97;;;;;20.00;101257.00;;;;12892563;22;20199;-80
2021/09/11 15:27:41;;;;;;;4.15;3.10;;;;;19.90;101251.00;;;;12929921;22;20177;-79
2021/09/11 15:32:45;;;;;;;4.80;3.08;;;;;20.00;101248.00;;;;12865367;22;20660;-80
2021/09/11 15:37:46;;;;;;;3.90;2.80;;;;;19.90;101253.00;;;;12867186;22;20196;-79
2021/09/11 15:42:48;;;;;;;6.03;2.90;;;;;19.80;101246.00;;;;12936796;22;20212;-80
2021/09/11 15:47:50;;;;;;;7.50;2.80;;;;;19.90;101248.00;;;;12863781;22;20174;-80
2021/09/11 15:52:51;;;;;;;7.25;2.80;;;;;19.90;101247.00;;;;12862767;22;20208;-80
2021/09/11 15:57:52;;;;;;;4.40;2.60;;;;;20.10;101247.00;;;;12891588;22;20175;-80
2021/09/11 16:02:54;;;;;;;6.63;3.13;;;;;20.40;101248.00;;;;12890578;22;20174;-80
2021/09/11 16:07:57;;;;;;;5.72;3.20;;;;;20.40;101245.00;;;;12841819;22;20260;-79
2021/09/11 16:12:58;;;;;;;7.13;3.20;;;;;20.60;101244.00;;;;12859446;22;20193;-79
2021/09/11 16:17:59;;;;;;;7.63;3.85;;;;;20.70;101254.00;;;;12912107;22;20253;-80
2021/09/11 16:23:02;;;;;;;6.00;3.55;;;;;20.60;101251.00;;;;12889213;22;20197;-80
2021/09/11 16:28:05;;;;;;;5.78;3.25;;;;;20.70;101254.00;;;;12887790;22;20165;-81
2021/09/11 16:33:06;;;;;;;8.75;3.63;;;;;20.70;101249.00;;;;12937928;22;20186;-80
2021/09/11 16:38:07;;;;;;;9.43;4.30;;;;;20.70;101251.00;;;;12894107;22;20173;-80
2021/09/11 16:43:08;;;;;;;6.05;3.55;;;;;20.70;101243.00;;;;12868964;22;20196;-81
2021/09/11 16:48:10;;;;;;;6.65;3.55;;;;;20.50;101246.00;;;;12919405;22;20855;-81
2021/09/11 16:53:11;;;;;;;7.55;3.00;;;;;20.40;101255.00;;;;12915728;22;20255;-81
2021/09/11 16:58:12;;;;;;;7.55;3.08;;;;;20.30;101247.00;;;;12868089;22;20946;-80
2021/09/11 17:03:14;;;;;;;7.45;2.65;;;;;20.10;101245.00;;;;12871712;22;20525;-80
2021/09/11 17:08:16;;;;;;;9.30;2.38;;;;;20.00;101245.00;;;;12894572;22;20176;-81
2021/09/11 17:13:17;;;;;;;5.00;2.80;;;;;19.90;101251.00;;;;12894745;22;20189;-80
2021/09/11 17:18:18;;;;;;;5.65;3.20;;;;;19.80;101248.00;;;;12867596;22;20232;-82
2021/09/11 17:23:19;;;;;;;6.72;3.10;;;;;19.70;101242.00;;;;12868425;22;20193;-81
2021/09/11 17:28:21;;;;;;;6.35;3.17;;;;;19.60;101229.00;;;;12891360;22;20636;-81
2021/09/11 17:33:22;;;;;;;7.90;3.25;;;;;19.50;101237.00;;;;12891994;22;20200;-81
2021/09/11 17:38:24;;;;;;;4.93;3.03;;;;;19.40;101231.00;;;;12866798;22;20173;-80
2021/09/11 17:43:25;;;;;;;5.47;3.40;;;;;19.30;101235.00;;;;12914435;22;20248;-80
2021/09/11 17:48:27;;;;;;;6.65;3.38;;;;;19.10;101239.00;;;;12866443;22;20169;-80
2021/09/11 17:53:28;;;;;;;4.20;3.08;;;;;19.00;101235.00;;;;12912073;22;20204;-80
2021/09/11 17:58:30;;;;;;;6.75;3.72;;;;;19.00;101247.00;;;;12893789;22;20174;-80
2021/09/11 18:03:31;;;;;;;5.68;3.10;;;;;18.90;101238.00;;;;12866677;22;20173;-80
2021/09/11 18:08:32;;;;;;;5.45;3.25;;;;;18.80;101250.00;;;;12869145;22;20173;-80
2021/09/11 18:13:34;;;;;;;7.68;3.90;;;;;18.70;101259.00;;;;12892581;22;20193;-80
2021/09/11 18:18:36;;;;;;;6.88;3.47;;;;;18.60;101256.00;;;;12866150;22;20188;-79
2021/09/11 18:23:37;;;;;;;4.45;3.55;;;;;18.50;101257.00;;;;12891088;23;20196;-80
2021/09/11 18:28:38;;;;;;;8.02;3.75;;;;;18.40;101257.00;;;;12892321;22;20540;-80
2021/09/11 18:33:40;;;;;;;10.07;4.15;;;;;18.20;101261.00;;;;12891531;22;20657;-79
2021/09/11 18:38:41;;;;;;;6.22;3.92;;;;;18.00;101263.00;;;;12866724;22;20204;-80
2021/09/11 18:43:42;;;;;;;7.00;4.43;;;;;17.90;101255.00;;;;12864573;23;20188;-80
2021/09/11 18:48:43;;;;;;;6.47;3.95;;;;;17.70;101265.00;;;;12866393;22;20173;-80
2021/09/11 18:53:44;;;;;;;6.30;3.72;;;;;17.50;101275.00;;;;12866388;22;20747;-80
2021/09/11 18:58:45;;;;;;;8.50;4.50;;;;;17.30;101276.00;;;;12868588;22;20173;-80
2021/09/11 19:03:46;;;;;;;10.77;4.55;;;;;17.20;101292.00;;;;12892729;22;20188;-79
2021/09/11 19:08:49;;;;;;;9.23;4.53;;;;;17.10;101301.00;;;;12940163;22;20243;-80
2021/09/11 19:13:50;;;;;;;8.65;5.28;;;;;17.00;101294.00;;;;12895025;22;20264;-79
2021/09/11 19:18:53;;;;;;;11.27;5.13;;;;;16.80;101309.00;;;;12893897;22;20828;-79
2021/09/11 19:23:54;;;;;;;9.40;5.53;;;;;16.70;101306.00;;;;12894303;22;20193;-79
2021/09/11 19:28:55;;;;;;;12.77;5.47;;;;;16.60;101312.00;;;;12918558;22;20178;-79
2021/09/11 19:33:56;;;;;;;10.30;5.32;;;;;16.50;101316.00;;;;12868354;22;20193;-80
2021/09/11 19:38:57;;;;;;;10.82;5.70;;;;;16.40;101320.00;;;;12893652;22;20173;-80
2021/09/11 19:43:58;;;;;;;9.27;6.03;;;;;16.30;101326.00;;;;12844476;22;20181;-80
2021/09/11 19:49:00;;;;;;;18.10;7.28;;;;;16.20;101328.00;;;;12893680;22;20165;-80
2021/09/11 19:54:01;;;;;;;17.08;8.80;;;;;16.10;101326.00;;;;12868020;22;20243;-80
2021/09/11 19:59:02;;;;;;;13.80;7.90;;;;;16.00;101331.00;;;;12891205;22;20232;-80
2021/09/11 20:04:03;;;;;;;15.53;8.10;;;;;15.90;101326.00;;;;12870653;22;20268;-79
2021/09/11 20:09:05;;;;;;;15.43;7.68;;;;;15.80;101330.00;;;;12869587;22;20795;-80
2021/09/11 20:14:07;;;;;;;13.67;7.63;;;;;15.80;101332.00;;;;12845998;22;20276;-81
2021/09/11 20:19:10;;;;;;;12.87;7.50;;;;;15.80;101338.00;;;;12868690;22;20244;-80
2021/09/11 20:24:12;;;;;;;11.30;6.60;;;;;15.70;101333.00;;;;12844700;22;20280;-80
2021/09/11 20:29:13;;;;;;;10.07;6.60;;;;;15.70;101338.00;;;;12869335;22;20166;-82
2021/09/11 20:34:14;;;;;;;10.97;6.37;;;;;15.70;101337.00;;;;12893386;22;20182;-80
2021/09/11 20:39:16;;;;;;;13.67;6.60;;;;;15.70;101350.00;;;;12868084;22;20173;-80
2021/09/11 20:44:17;;;;;;;19.47;7.00;;;;;15.70;101340.00;;;;12893193;22;20196;-80
2021/09/11 20:49:18;;;;;;;13.17;6.10;;;;;15.70;101350.00;;;;12893596;22;20174;-80
2021/09/11 20:54:19;;;;;;;14.40;5.53;;;;;15.60;101357.00;;;;12894406;22;20201;-79
2021/09/11 20:59:20;;;;;;;10.67;5.60;;;;;15.60;101343.00;;;;12939281;22;20623;-80
2021/09/11 21:04:21;;;;;;;12.83;6.87;;;;;15.50;101356.00;;;;12892624;22;20180;-80
2021/09/11 21:09:22;;;;;;;10.87;5.23;;;;;15.40;101355.00;;;;12893439;22;20180;-80
2021/09/11 21:14:24;;;;;;;10.37;5.37;;;;;15.40;101359.00;;;;12866890;22;20174;-79
2021/09/11 21:19:25;;;;;;;8.00;4.87;;;;;15.30;101366.00;;;;12865453;22;20173;-80
2021/09/11 21:24:27;;;;;;;16.23;4.63;;;;;15.30;101371.00;;;;12867240;22;20196;-79
2021/09/11 21:29:28;;;;;;;11.40;4.83;;;;;15.30;101377.00;;;;12867653;22;20173;-80
2021/09/11 21:34:29;;;;;;;16.30;5.63;;;;;15.30;101369.00;;;;12867007;22;20181;-80
2021/09/11 21:39:30;;;;;;;12.13;5.30;;;;;15.20;101360.00;;;;12842758;22;20627;-80
2021/09/11 21:44:31;;;;;;;9.57;4.53;;;;;15.20;101363.00;;;;12865913;22;20166;-80
2021/09/11 21:49:32;;;;;;;11.17;4.73;;;;;15.10;101366.00;;;;12867403;22;20228;-80
2021/09/11 21:54:34;;;;;;;10.73;4.53;;;;;15.00;101371.00;;;;12842521;22;20223;-80
2021/09/11 21:59:35;;;;;;;10.57;5.00;;;;;14.80;101365.00;;;;12841486;22;20526;-79
2021/09/11 22:04:37;;;;;;;12.23;4.70;;;;;14.70;101364.00;;;;12866110;22;20170;-79
2021/09/11 22:09:39;;;;;;;11.67;5.30;;;;;14.70;101370.00;;;;12866268;22;20184;-79
2021/09/11 22:14:40;;;;;;;10.87;5.10;;;;;14.60;101375.00;;;;12842823;22;20174;-79
2021/09/11 22:19:41;;;;;;;12.63;6.10;;;;;14.50;101370.00;;;;12843499;22;20184;-79
2021/09/11 22:24:42;;;;;;;8.17;5.40;;;;;14.40;101377.00;;;;12892773;22;20193;-79
2021/09/11 22:29:45;;;;;;;9.10;5.10;;;;;14.40;101373.00;;;;12940131;22;20185;-80
2021/09/11 22:34:47;;;;;;;11.63;5.33;;;;;14.40;101369.00;;;;12894289;22;20174;-80
2021/09/11 22:39:48;;;;;;;9.77;5.10;;;;;14.40;101368.00;;;;12868886;22;20236;-81
2021/09/11 22:44:49;;;;;;;8.90;5.87;;;;;14.30;101383.00;;;;12867960;22;20220;-80
2021/09/11 22:49:50;;;;;;;12.93;5.53;;;;;14.20;101382.00;;;;12893977;22;20201;-81
2021/09/11 22:54:51;;;;;;;11.53;4.70;;;;;14.10;101381.00;;;;12868015;22;20169;-80
2021/09/11 22:59:53;;;;;;;8.77;4.33;;;;;14.10;101385.00;;;;12868010;22;20683;-80
2021/09/11 23:04:54;;;;;;;9.73;5.00;;;;;14.00;101396.00;;;;12867380;22;20175;-80
2021/09/11 23:09:55;;;;;;;12.97;5.20;;;;;13.90;101381.00;;;;12869565;22;20197;-81
2021/09/11 23:14:56;;;;;;;9.00;5.00;;;;;13.90;101380.00;;;;12867679;22;20209;-80
2021/09/11 23:19:57;;;;;;;9.93;5.60;;;;;13.80;101375.00;;;;12894607;22;20180;-80
2021/09/11 23:24:59;;;;;;;12.60;5.43;;;;;13.70;101379.00;;;;12892535;22;20746;-80
2021/09/11 23:30:00;;;;;;;10.63;5.40;;;;;13.70;101379.00;;;;12892371;22;20239;-80
2021/09/11 23:35:02;;;;;;;9.07;5.23;;;;;13.60;101380.00;;;;12867254;22;20608;-80
2021/09/11 23:40:04;;;;;;;9.77;5.13;;;;;13.50;101376.00;;;;12891794;22;20177;-79
2021/09/11 23:45:05;;;;;;;13.13;5.00;;;;;13.50;101374.00;;;;12867605;22;20171;-79
2021/09/11 23:50:07;;;;;;;7.50;5.27;;;;;13.40;101366.00;;;;12868083;22;20194;-79
2021/09/11 23:55:08;;;;;;;10.37;5.63;;;;;13.40;101368.00;;;;12867505;22;20177;-80
